createdAt,value
2023-01-13T00:54:24.714Z,28.57
2023-01-13T00:55:25.575Z,27.77
2023-01-13T00:56:39.858Z,27.67
2023-01-13T00:57:25.525Z,27.60
2023-01-13T00:58:25.477Z,27.52
2023-01-13T00:59:25.727Z,27.45
2023-01-13T01:00:25.418Z,27.38
2023-01-13T01:01:25.551Z,27.31
2023-01-13T01:02:25.650Z,27.24
2023-01-13T01:03:25.370Z,27.19
2023-01-13T01:04:25.283Z,27.13
2023-01-13T01:05:25.250Z,27.08
2023-01-13T01:06:25.520Z,27.03
2023-01-13T01:07:25.243Z,26.95
2023-01-13T01:08:25.159Z,26.92
2023-01-13T01:09:25.172Z,26.85
2023-01-13T01:10:25.074Z,26.83
2023-01-13T01:11:25.005Z,26.79
2023-01-13T01:12:25.068Z,26.74
2023-01-13T01:13:25.002Z,26.70
2023-01-13T01:14:24.899Z,26.67
2023-01-13T01:15:24.858Z,26.64
2023-01-13T01:16:24.918Z,26.59
2023-01-13T01:17:24.863Z,26.57
2023-01-13T01:18:24.735Z,26.56
2023-01-13T01:19:24.722Z,26.53
2023-01-13T01:20:24.669Z,26.50
2023-01-13T01:21:24.661Z,26.51
2023-01-13T01:22:24.592Z,26.48
2023-01-13T01:23:24.654Z,26.45
2023-01-13T01:24:24.556Z,26.47
2023-01-13T01:25:24.474Z,26.43
2023-01-13T01:26:24.477Z,26.43
2023-01-13T01:27:24.410Z,26.41
2023-01-13T01:28:24.380Z,26.40
2023-01-13T01:29:24.422Z,26.39
2023-01-13T01:30:24.301Z,26.40
2023-01-13T01:31:24.357Z,26.36
2023-01-13T01:32:24.226Z,26.37
2023-01-13T01:33:24.195Z,26.36
2023-01-13T01:34:24.192Z,26.34
2023-01-13T01:35:24.208Z,26.34
2023-01-13T01:36:24.093Z,26.33
2023-01-13T01:37:24.058Z,26.32
2023-01-13T01:38:24.014Z,26.32
2023-01-13T01:39:23.985Z,26.34
2023-01-13T01:40:23.952Z,26.30
2023-01-13T01:41:23.990Z,26.32
2023-01-13T01:42:23.891Z,26.33
2023-01-13T01:43:23.825Z,26.31
2023-01-13T01:44:23.804Z,26.30
2023-01-13T01:45:23.737Z,26.30
2023-01-13T01:46:23.774Z,26.31
2023-01-13T01:47:23.758Z,26.31
2023-01-13T01:48:23.600Z,26.30
2023-01-13T01:49:23.612Z,26.28
2023-01-13T01:50:23.518Z,26.29
2023-01-13T01:51:23.472Z,26.28
2023-01-13T01:52:23.486Z,26.29
2023-01-13T01:53:23.472Z,26.28
2023-01-13T01:54:23.367Z,26.32
2023-01-13T01:55:23.297Z,26.29
2023-01-13T01:56:23.263Z,26.28
2023-01-13T01:57:23.237Z,26.29
2023-01-13T01:58:23.202Z,26.28
2023-01-13T01:59:23.245Z,26.30
2023-01-13T02:00:23.089Z,26.27
2023-01-13T02:01:23.168Z,26.29
2023-01-13T02:02:23.076Z,26.26
2023-01-13T02:03:22.970Z,26.27
2023-01-13T02:04:22.935Z,26.27
2023-01-13T02:05:22.985Z,26.27
2023-01-13T02:06:22.845Z,26.24
2023-01-13T02:07:22.905Z,26.26
2023-01-13T02:08:22.781Z,26.26
2023-01-13T02:09:22.728Z,26.29
2023-01-13T02:10:22.732Z,26.27
2023-01-13T02:11:22.756Z,26.24
2023-01-13T02:12:22.619Z,26.27
2023-01-13T02:13:22.574Z,26.24
2023-01-13T02:14:22.571Z,26.23
2023-01-13T02:15:22.489Z,26.24
2023-01-13T02:16:22.518Z,26.24
2023-01-13T02:17:22.517Z,26.24
2023-01-13T02:18:22.374Z,26.24
2023-01-13T02:19:22.348Z,26.25
2023-01-13T02:20:22.294Z,26.22
2023-01-13T02:21:22.274Z,26.23
2023-01-13T02:22:22.330Z,26.24
2023-01-13T02:23:22.172Z,26.25
2023-01-13T02:24:22.132Z,26.22
2023-01-13T02:25:22.097Z,26.24
2023-01-13T02:26:22.055Z,26.27
2023-01-13T02:27:22.120Z,26.23
2023-01-13T02:28:21.987Z,26.22
2023-01-13T02:29:21.940Z,26.23
2023-01-13T02:30:21.926Z,26.24
2023-01-13T02:31:21.962Z,26.22
2023-01-13T02:32:21.834Z,26.24
2023-01-13T02:33:21.902Z,26.23
2023-01-13T02:34:21.753Z,26.23
2023-01-13T02:35:21.720Z,26.22
2023-01-13T02:36:21.672Z,26.22
2023-01-13T02:37:21.633Z,26.22
2023-01-13T02:38:21.590Z,26.22
2023-01-13T02:39:21.647Z,26.21
2023-01-13T02:40:21.529Z,26.21
2023-01-13T02:41:21.488Z,26.23
2023-01-13T02:42:21.454Z,26.22
2023-01-13T02:43:21.416Z,26.22
2023-01-13T02:44:21.378Z,26.21
2023-01-13T02:45:21.412Z,26.20
2023-01-13T02:46:21.330Z,26.22
2023-01-13T02:47:21.276Z,26.22
2023-01-13T02:48:21.285Z,26.21
2023-01-13T02:49:21.194Z,26.22
2023-01-13T02:50:21.153Z,26.21
2023-01-13T02:51:21.194Z,26.21
2023-01-13T02:52:21.087Z,26.21
2023-01-13T02:53:21.050Z,26.21
2023-01-13T02:54:20.990Z,26.18
2023-01-13T02:55:20.975Z,26.22
2023-01-13T02:56:20.919Z,26.20
2023-01-13T02:57:20.948Z,26.22
2023-01-13T02:58:20.834Z,26.23
2023-01-13T02:59:20.797Z,26.21
2023-01-13T03:00:20.773Z,26.21
2023-01-13T03:01:20.804Z,26.20
2023-01-13T03:02:20.901Z,26.20
2023-01-13T03:03:20.718Z,26.21
2023-01-13T03:04:20.596Z,26.22
2023-01-13T03:05:20.556Z,26.21
2023-01-13T03:06:20.531Z,26.20
2023-01-13T03:07:20.475Z,26.20
2023-01-13T03:08:20.434Z,26.19
2023-01-13T03:09:20.464Z,26.20
2023-01-13T03:10:20.353Z,26.25
2023-01-13T03:11:20.307Z,26.22
2023-01-13T03:12:20.269Z,26.22
2023-01-13T03:13:20.235Z,26.20
2023-01-13T03:14:20.195Z,26.21
2023-01-13T03:15:20.351Z,26.21
2023-01-13T03:16:20.170Z,26.17
2023-01-13T03:17:20.086Z,26.20
2023-01-13T03:18:20.065Z,26.22
2023-01-13T03:19:20.000Z,26.19
2023-01-13T03:20:19.961Z,26.19
2023-01-13T03:21:19.954Z,26.19
2023-01-13T03:22:19.878Z,26.20
2023-01-13T03:23:19.849Z,26.23
2023-01-13T03:24:19.813Z,26.21
2023-01-13T03:25:19.763Z,26.20
2023-01-13T03:26:19.734Z,26.22
2023-01-13T03:27:19.686Z,26.19
2023-01-13T03:28:19.649Z,26.19
2023-01-13T03:29:19.615Z,26.20
2023-01-13T03:30:19.582Z,26.20
2023-01-13T03:31:19.533Z,26.16
2023-01-13T03:32:19.493Z,26.19
2023-01-13T03:33:19.453Z,26.20
2023-01-13T03:34:19.450Z,26.19
2023-01-13T03:35:19.384Z,26.20
2023-01-13T03:36:19.344Z,26.16
2023-01-13T03:37:19.315Z,26.20
2023-01-13T03:38:19.284Z,26.17
2023-01-13T03:39:19.250Z,26.17
2023-01-13T03:40:19.206Z,26.19
2023-01-13T03:41:19.173Z,26.17
2023-01-13T03:42:19.134Z,26.17
2023-01-13T03:43:19.106Z,26.16
2023-01-13T03:44:19.077Z,26.18
2023-01-13T03:45:19.042Z,26.16
2023-01-13T03:46:19.035Z,26.16
2023-01-13T03:47:18.960Z,26.16
2023-01-13T03:48:18.932Z,26.17
2023-01-13T03:49:18.931Z,26.16
2023-01-13T03:50:18.901Z,26.18
2023-01-13T03:51:18.823Z,26.17
2023-01-13T03:52:18.831Z,26.17
2023-01-13T03:53:18.766Z,26.16
2023-01-13T03:54:18.711Z,26.18
2023-01-13T03:55:18.708Z,26.14
2023-01-13T03:56:18.642Z,26.15
2023-01-13T03:57:18.599Z,26.17
2023-01-13T03:58:18.618Z,26.15
2023-01-13T03:59:18.531Z,26.15
2023-01-13T04:00:18.495Z,26.15
2023-01-13T04:01:18.552Z,26.13
2023-01-13T04:02:18.516Z,26.14
2023-01-13T04:03:18.380Z,26.14
2023-01-13T04:04:18.343Z,26.14
2023-01-13T04:05:18.320Z,26.15
2023-01-13T04:06:18.322Z,26.15
2023-01-13T04:07:18.237Z,26.14
2023-01-13T04:08:18.202Z,26.12
2023-01-13T04:09:18.183Z,26.13
2023-01-13T04:10:18.124Z,26.15
2023-01-13T04:11:18.090Z,26.12
2023-01-13T04:12:18.087Z,26.11
2023-01-13T04:13:18.017Z,26.11
2023-01-13T04:14:17.987Z,26.12
2023-01-13T04:15:17.945Z,26.11
2023-01-13T04:16:17.916Z,26.15
2023-01-13T04:17:17.884Z,26.11
2023-01-13T04:18:17.841Z,26.14
2023-01-13T04:19:17.818Z,26.15
2023-01-13T04:20:17.770Z,26.11
2023-01-13T04:21:17.736Z,26.12
2023-01-13T04:22:17.738Z,26.14
2023-01-13T04:23:17.681Z,26.17
2023-01-13T04:24:17.618Z,26.13
2023-01-13T04:25:17.583Z,26.14
2023-01-13T04:26:17.547Z,26.11
2023-01-13T04:27:17.508Z,26.10
2023-01-13T04:28:17.489Z,26.10
2023-01-13T04:29:17.423Z,26.11
2023-01-13T04:30:17.385Z,26.11
2023-01-13T04:31:17.420Z,26.11
2023-01-13T04:32:17.306Z,26.11
2023-01-13T04:33:17.268Z,26.09
2023-01-13T04:34:17.238Z,26.10
2023-01-13T04:35:17.196Z,26.10
2023-01-13T04:36:17.160Z,26.10
2023-01-13T04:37:17.123Z,26.11
2023-01-13T04:38:17.102Z,26.12
2023-01-13T04:39:17.047Z,26.11
2023-01-13T04:40:17.019Z,26.11
2023-01-13T04:41:16.977Z,26.10
2023-01-13T04:42:16.940Z,26.10
2023-01-13T04:43:16.888Z,26.11
2023-01-13T04:44:16.856Z,26.12
2023-01-13T04:45:16.812Z,26.09
2023-01-13T04:46:16.875Z,26.11
2023-01-13T04:47:16.732Z,26.11
2023-01-13T04:48:16.683Z,26.10
2023-01-13T04:49:16.645Z,26.08
2023-01-13T04:50:16.609Z,26.11
2023-01-13T04:51:16.603Z,26.13
2023-01-13T04:52:16.531Z,26.13
2023-01-13T04:53:16.501Z,26.12
2023-01-13T04:54:16.466Z,26.11
2023-01-13T04:55:16.412Z,26.10
2023-01-13T04:56:16.373Z,26.12
2023-01-13T04:57:16.346Z,26.09
2023-01-13T04:58:16.304Z,26.11
2023-01-13T04:59:16.262Z,26.12
2023-01-13T05:00:16.241Z,26.11
2023-01-13T05:01:16.282Z,26.08
2023-01-13T05:02:16.180Z,26.10
2023-01-13T05:03:16.107Z,26.08
2023-01-13T05:04:16.068Z,26.10
2023-01-13T05:05:16.047Z,26.08
2023-01-13T05:06:15.987Z,26.09
2023-01-13T05:07:15.965Z,26.06
2023-01-13T05:08:15.915Z,26.07
2023-01-13T05:09:15.913Z,26.08
2023-01-13T05:10:15.867Z,26.08
2023-01-13T05:11:15.817Z,26.07
2023-01-13T05:12:15.763Z,26.08
2023-01-13T05:13:15.727Z,26.08
2023-01-13T05:14:15.696Z,26.09
2023-01-13T05:15:15.652Z,26.08
2023-01-13T05:16:15.711Z,26.09
2023-01-13T05:17:15.578Z,26.08
2023-01-13T05:18:15.541Z,26.05
2023-01-13T05:19:15.514Z,26.04
2023-01-13T05:20:15.463Z,26.04
2023-01-13T05:21:15.433Z,26.05
2023-01-13T05:22:15.395Z,26.08
2023-01-13T05:23:15.368Z,26.08
2023-01-13T05:24:15.328Z,26.06
2023-01-13T05:25:15.302Z,26.06
2023-01-13T05:26:15.280Z,26.05
2023-01-13T05:27:15.217Z,26.03
2023-01-13T05:28:15.195Z,26.05
2023-01-13T05:29:15.154Z,26.06
2023-01-13T05:30:15.111Z,26.04
2023-01-13T05:31:15.187Z,26.07
2023-01-13T05:32:15.041Z,26.07
2023-01-13T05:33:15.019Z,26.04
2023-01-13T05:34:14.968Z,26.05
2023-01-13T05:35:14.938Z,26.06
2023-01-13T05:36:14.897Z,26.03
2023-01-13T05:37:14.868Z,26.03
2023-01-13T05:38:14.831Z,26.00
2023-01-13T05:39:14.790Z,26.03
2023-01-13T05:40:14.750Z,26.03
2023-01-13T05:41:14.722Z,26.02
2023-01-13T05:42:14.712Z,26.03
2023-01-13T05:43:14.651Z,26.01
2023-01-13T05:44:14.616Z,26.01
2023-01-13T05:45:14.592Z,26.03
2023-01-13T05:46:14.592Z,26.03
2023-01-13T05:47:14.512Z,26.01
2023-01-13T05:48:14.486Z,26.03
2023-01-13T05:49:14.438Z,26.04
2023-01-13T05:50:14.405Z,26.04
2023-01-13T05:51:14.387Z,26.02
2023-01-13T05:52:14.332Z,26.01
2023-01-13T05:53:14.368Z,26.02
2023-01-13T05:54:14.260Z,26.05
2023-01-13T05:55:14.223Z,26.05
2023-01-13T05:56:14.193Z,26.01
2023-01-13T05:57:14.135Z,26.01
2023-01-13T05:58:14.129Z,26.00
2023-01-13T05:59:14.063Z,26.00
2023-01-13T06:00:14.027Z,25.99
2023-01-13T06:01:14.076Z,26.00
2023-01-13T06:02:13.935Z,26.00
2023-01-13T06:03:13.990Z,26.02
2023-01-13T06:04:13.917Z,26.02
2023-01-13T06:05:13.840Z,26.04
2023-01-13T06:06:13.764Z,26.06
2023-01-13T06:07:13.716Z,26.00
2023-01-13T06:08:13.672Z,26.00
2023-01-13T06:09:14.001Z,26.04
2023-01-13T06:10:13.589Z,26.03
2023-01-13T06:11:13.549Z,26.03
2023-01-13T06:12:13.512Z,26.06
2023-01-13T06:13:13.479Z,26.02
2023-01-13T06:14:13.477Z,25.99
2023-01-13T06:15:13.420Z,26.00
2023-01-13T06:16:13.494Z,26.00
2023-01-13T06:17:13.371Z,25.98
2023-01-13T06:18:13.318Z,26.00
2023-01-13T06:19:13.297Z,26.01
2023-01-13T06:20:13.419Z,25.98
2023-01-13T06:21:13.553Z,25.98
2023-01-13T06:22:13.185Z,25.92
2023-01-13T06:23:13.164Z,25.92
2023-01-13T06:24:13.522Z,25.92
2023-01-13T06:25:13.074Z,25.92
2023-01-13T06:26:13.050Z,25.93
2023-01-13T06:27:13.018Z,25.94
2023-01-13T06:28:12.979Z,25.97
2023-01-13T06:29:12.933Z,25.95
2023-01-13T06:30:12.937Z,25.97
2023-01-13T06:31:12.932Z,25.99
2023-01-13T06:32:12.825Z,26.01
2023-01-13T06:33:12.821Z,25.99
2023-01-13T06:34:12.754Z,25.98
2023-01-13T06:35:12.723Z,25.98
2023-01-13T06:36:13.515Z,25.99
2023-01-13T06:37:12.662Z,25.93
2023-01-13T06:38:12.633Z,25.96
2023-01-13T06:39:12.583Z,26.03
2023-01-13T06:40:13.008Z,25.96
2023-01-13T06:41:12.513Z,25.98
2023-01-13T06:42:12.484Z,26.00
2023-01-13T06:43:15.086Z,26.04
2023-01-13T06:44:12.533Z,26.07
2023-01-13T06:45:12.354Z,26.09
2023-01-13T06:46:12.359Z,26.21
2023-01-13T06:47:12.294Z,26.24
2023-01-13T06:48:12.274Z,26.20
2023-01-13T06:49:12.520Z,26.25
2023-01-13T06:50:12.170Z,26.56
2023-01-13T06:51:12.127Z,27.02
2023-01-13T06:52:12.079Z,27.41
2023-01-13T06:53:12.587Z,27.51
2023-01-13T06:54:12.023Z,27.73
2023-01-13T06:55:12.718Z,27.88
2023-01-13T06:56:11.910Z,28.21
2023-01-13T06:57:11.892Z,28.44
2023-01-13T06:58:12.015Z,28.52
2023-01-13T06:59:11.770Z,28.73
2023-01-13T07:00:11.777Z,28.60
2023-01-13T07:01:11.830Z,28.15
2023-01-13T07:02:11.854Z,27.81
2023-01-13T07:03:12.040Z,27.62
2023-01-13T07:04:11.560Z,27.36
2023-01-13T07:05:11.557Z,27.23
2023-01-13T07:06:18.963Z,27.26
2023-01-13T07:07:11.436Z,27.22
2023-01-13T07:08:11.383Z,27.11
2023-01-13T07:09:11.370Z,27.22
2023-01-13T07:10:11.317Z,26.92
2023-01-13T07:11:11.551Z,27.05
2023-01-13T07:12:11.226Z,27.10
2023-01-13T07:13:11.188Z,27.32
2023-01-13T07:14:11.160Z,28.03
2023-01-13T07:15:11.391Z,28.05
2023-01-13T07:16:11.178Z,27.33
2023-01-13T07:17:12.101Z,27.40
2023-01-13T07:18:11.071Z,27.24
2023-01-13T07:19:11.057Z,27.13
2023-01-13T07:20:10.938Z,26.92
2023-01-13T07:21:10.917Z,26.95
2023-01-13T07:22:11.031Z,26.97
2023-01-13T07:23:12.901Z,26.82
2023-01-13T07:24:11.091Z,27.01
2023-01-13T07:25:10.803Z,27.04
2023-01-13T07:26:10.739Z,27.57
2023-01-13T07:27:10.712Z,27.57
2023-01-13T07:28:10.650Z,26.89
2023-01-13T07:29:11.029Z,27.18
2023-01-13T07:30:10.578Z,26.87
2023-01-13T07:31:10.667Z,27.17
2023-01-13T07:32:10.530Z,26.68
2023-01-13T07:33:10.487Z,26.55
2023-01-13T07:34:10.569Z,26.55
2023-01-13T07:35:10.424Z,26.73
2023-01-13T07:36:10.427Z,27.07
2023-01-13T07:37:10.525Z,26.99
2023-01-13T07:38:10.337Z,26.63
2023-01-13T07:39:10.321Z,26.74
2023-01-13T07:40:10.286Z,26.68
2023-01-13T07:41:10.532Z,26.73
2023-01-13T07:42:10.251Z,26.42
2023-01-13T07:43:10.220Z,26.57
2023-01-13T07:44:10.187Z,26.49
2023-01-13T07:45:12.239Z,26.80
2023-01-13T07:46:13.218Z,27.26
2023-01-13T07:47:10.103Z,27.50
2023-01-13T07:48:10.607Z,27.68
2023-01-13T07:49:10.032Z,27.82
2023-01-13T07:50:10.169Z,28.12
2023-01-13T07:51:17.537Z,27.93
2023-01-13T07:52:10.031Z,27.78
2023-01-13T07:53:09.996Z,27.77
2023-01-13T07:54:10.030Z,27.73
2023-01-13T07:55:09.924Z,27.70
2023-01-13T07:56:10.106Z,27.80
2023-01-13T07:57:09.849Z,27.85
2023-01-13T07:58:09.819Z,27.92
2023-01-13T07:59:10.073Z,28.13
2023-01-13T08:00:12.037Z,28.12
2023-01-13T08:01:09.920Z,28.37
2023-01-13T08:02:09.810Z,28.50
2023-01-13T08:03:09.732Z,28.60
2023-01-13T08:04:10.131Z,28.77
2023-01-13T08:05:09.683Z,28.76
2023-01-13T08:06:09.580Z,28.91
2023-01-13T08:07:09.507Z,28.93
2023-01-13T08:08:09.459Z,29.09
2023-01-13T08:09:09.571Z,29.20
2023-01-13T08:10:09.397Z,29.26
2023-01-13T08:11:09.837Z,29.44
2023-01-13T08:12:09.300Z,29.59
2023-01-13T08:13:09.296Z,29.65
2023-01-13T08:14:09.223Z,29.71
2023-01-13T08:15:09.549Z,29.86
2023-01-13T08:16:09.153Z,29.92
2023-01-13T08:17:09.118Z,30.02
2023-01-13T08:18:09.450Z,30.09
2023-01-13T08:19:09.524Z,30.23
2023-01-13T08:20:09.046Z,30.33
2023-01-13T08:21:08.956Z,30.40
2023-01-13T08:22:08.941Z,30.50
2023-01-13T08:23:08.872Z,30.60
2023-01-13T08:24:08.877Z,30.63
2023-01-13T08:25:09.042Z,30.76
2023-01-13T08:26:08.752Z,30.88
2023-01-13T08:27:08.719Z,30.88
2023-01-13T08:28:08.683Z,31.04
2023-01-13T08:29:08.871Z,31.12
2023-01-13T08:30:08.724Z,31.32
2023-01-13T08:31:09.089Z,31.48
2023-01-13T08:32:08.643Z,31.53
2023-01-13T08:33:08.589Z,31.55
2023-01-13T08:34:08.689Z,31.75
2023-01-13T08:35:08.594Z,31.75
2023-01-13T08:36:08.542Z,31.90
2023-01-13T08:37:08.499Z,31.93
2023-01-13T08:38:08.579Z,31.78
2023-01-13T08:40:08.134Z,31.69
2023-01-13T08:41:08.063Z,31.59
2023-01-13T08:42:08.039Z,30.85
2023-01-13T08:43:08.197Z,30.72
2023-01-13T08:44:07.952Z,31.11
2023-01-13T08:45:08.074Z,31.36
2023-01-13T08:46:11.184Z,31.33
2023-01-13T08:47:07.820Z,31.48
2023-01-13T08:48:08.161Z,31.55
2023-01-13T08:49:07.764Z,31.43
2023-01-13T08:50:08.079Z,31.53
2023-01-13T08:51:07.688Z,31.69
2023-01-13T08:52:07.870Z,31.66
2023-01-13T08:53:07.593Z,30.18
2023-01-13T08:54:07.545Z,27.46
2023-01-13T08:55:07.478Z,26.35
2023-01-13T08:56:07.456Z,24.93
2023-01-13T08:57:08.871Z,25.82
2023-01-13T08:58:15.265Z,26.55
2023-01-13T08:59:07.512Z,27.12
2023-01-13T09:00:07.473Z,27.53
2023-01-13T09:01:07.694Z,27.96
2023-01-13T09:02:07.595Z,28.16
2023-01-13T09:03:07.377Z,28.40
2023-01-13T09:04:07.443Z,28.45
2023-01-13T09:05:07.493Z,28.58
2023-01-13T09:06:07.596Z,28.72
2023-01-13T09:07:07.287Z,28.75
2023-01-13T09:08:07.266Z,28.76
2023-01-13T09:09:07.237Z,28.98
2023-01-13T09:10:07.302Z,29.04
2023-01-13T09:11:07.653Z,29.12
2023-01-13T09:12:07.609Z,29.17
2023-01-13T09:13:07.093Z,29.27
2023-01-13T09:14:07.071Z,29.27
2023-01-13T09:15:07.113Z,29.32
2023-01-13T09:16:07.128Z,29.33
2023-01-13T09:17:06.958Z,29.43
2023-01-13T09:18:06.947Z,29.52
2023-01-13T09:19:07.059Z,29.54
2023-01-13T09:20:07.091Z,29.60
2023-01-13T09:21:06.839Z,29.66
2023-01-13T09:22:06.783Z,29.75
2023-01-13T09:23:09.884Z,29.78
2023-01-13T09:24:07.248Z,29.96
2023-01-13T09:25:08.093Z,29.91
2023-01-13T09:26:06.648Z,29.98
2023-01-13T09:27:06.592Z,30.00
2023-01-13T09:28:06.546Z,30.12
2023-01-13T09:29:06.493Z,30.12
2023-01-13T09:30:06.639Z,30.16
2023-01-13T09:31:06.494Z,30.27
2023-01-13T09:32:06.517Z,30.31
2023-01-13T09:33:06.352Z,30.42
2023-01-13T09:34:06.318Z,30.41
2023-01-13T09:35:06.269Z,29.93
2023-01-13T09:36:06.742Z,29.66
2023-01-13T09:37:06.940Z,28.97
2023-01-13T09:38:06.190Z,29.04
2023-01-13T09:39:06.402Z,28.59
2023-01-13T09:40:06.075Z,28.78
2023-01-13T09:41:06.032Z,26.97
2023-01-13T09:42:06.609Z,26.02
2023-01-13T09:43:06.612Z,25.30
2023-01-13T09:44:06.282Z,26.01
2023-01-13T09:45:06.057Z,26.75
2023-01-13T09:46:06.156Z,27.14
2023-01-13T09:47:06.083Z,27.74
2023-01-13T09:48:06.033Z,28.17
2023-01-13T09:49:06.054Z,28.14
2023-01-13T09:50:05.978Z,28.23
2023-01-13T09:51:06.149Z,28.33
2023-01-13T09:52:05.927Z,28.44
2023-01-13T09:53:05.911Z,28.48
2023-01-13T09:54:05.868Z,28.44
2023-01-13T09:55:05.873Z,28.24
2023-01-13T09:56:06.176Z,28.12
2023-01-13T09:57:07.617Z,28.53
2023-01-13T09:58:08.014Z,28.81
2023-01-13T09:59:05.750Z,28.95
2023-01-13T10:00:05.686Z,28.92
2023-01-13T10:01:05.804Z,29.00
2023-01-13T10:02:06.185Z,29.03
2023-01-13T10:03:05.614Z,29.09
2023-01-13T10:04:06.442Z,29.10
2023-01-13T10:05:05.667Z,29.11
2023-01-13T10:06:07.480Z,29.23
2023-01-13T10:07:05.437Z,29.29
2023-01-13T10:08:05.408Z,29.36
2023-01-13T10:09:05.339Z,29.43
2023-01-13T10:10:07.832Z,29.53
2023-01-13T10:11:05.242Z,29.56
2023-01-13T10:12:05.614Z,29.58
2023-01-13T10:13:05.192Z,29.55
2023-01-13T10:14:05.171Z,29.64
2023-01-13T10:15:05.086Z,29.68
2023-01-13T10:16:05.182Z,29.80
2023-01-13T10:17:04.987Z,29.86
2023-01-13T10:18:05.129Z,30.00
2023-01-13T10:19:04.873Z,30.01
2023-01-13T10:20:04.812Z,30.16
2023-01-13T10:21:04.780Z,30.28
2023-01-13T10:22:04.712Z,30.32
2023-01-13T10:23:05.086Z,30.39
2023-01-13T10:24:04.643Z,30.51
2023-01-13T10:25:11.616Z,30.47
2023-01-13T10:26:04.620Z,30.59
2023-01-13T10:27:04.493Z,30.67
2023-01-13T10:28:04.471Z,30.78
2023-01-13T10:29:04.437Z,30.81
2023-01-13T10:30:04.607Z,30.97
2023-01-13T10:31:04.401Z,31.04
2023-01-13T10:32:04.282Z,31.23
2023-01-13T10:33:04.244Z,31.09
2023-01-13T10:34:04.241Z,31.15
2023-01-13T10:35:04.602Z,31.14
2023-01-13T10:36:04.085Z,31.15
2023-01-13T10:37:04.040Z,31.34
2023-01-13T10:38:04.112Z,31.27
2023-01-13T10:39:03.972Z,31.33
2023-01-13T10:40:03.897Z,31.70
2023-01-13T10:41:03.860Z,31.63
2023-01-13T10:42:03.801Z,31.74
2023-01-13T10:43:04.104Z,32.01
2023-01-13T10:44:03.719Z,32.00
2023-01-13T10:45:03.750Z,32.09
2023-01-13T10:46:03.890Z,32.09
2023-01-13T10:47:03.605Z,32.12
2023-01-13T10:48:04.512Z,32.23
2023-01-13T10:49:03.630Z,32.25
2023-01-13T10:50:04.481Z,32.41
2023-01-13T10:51:03.384Z,32.47
2023-01-13T10:52:03.931Z,32.57
2023-01-13T10:53:03.290Z,32.66
2023-01-13T10:54:03.303Z,32.73
2023-01-13T10:55:03.175Z,32.79
2023-01-13T10:56:06.380Z,32.89
2023-01-13T10:57:03.124Z,32.98
2023-01-13T10:58:03.156Z,33.10
2023-01-13T10:59:02.985Z,33.10
2023-01-13T11:00:03.143Z,33.23
2023-01-13T11:01:03.022Z,33.30
2023-01-13T11:02:13.086Z,33.48
2023-01-13T11:03:02.991Z,33.59
2023-01-13T11:04:02.742Z,32.53
2023-01-13T11:05:03.359Z,30.44
2023-01-13T11:06:02.655Z,28.65
2023-01-13T11:07:03.625Z,28.06
2023-01-13T11:08:02.528Z,27.03
2023-01-13T11:09:02.615Z,27.16
2023-01-13T11:10:02.459Z,27.69
2023-01-13T11:11:02.441Z,28.25
2023-01-13T11:12:02.399Z,28.81
2023-01-13T11:13:02.385Z,29.63
2023-01-13T11:14:02.620Z,29.82
2023-01-13T11:15:02.296Z,29.92
2023-01-13T11:16:02.324Z,30.05
2023-01-13T11:17:02.650Z,30.18
2023-01-13T11:18:02.608Z,30.37
2023-01-13T11:19:02.286Z,30.41
2023-01-13T11:20:02.084Z,30.58
2023-01-13T11:21:03.046Z,30.59
2023-01-13T11:22:02.242Z,30.74
2023-01-13T11:23:01.977Z,30.86
2023-01-13T11:24:02.155Z,31.19
2023-01-13T11:25:01.892Z,31.61
2023-01-13T11:26:01.801Z,31.69
2023-01-13T11:27:01.734Z,29.46
2023-01-13T11:28:01.697Z,25.94
2023-01-13T11:29:02.583Z,25.48
2023-01-13T11:30:01.627Z,25.97
2023-01-13T11:31:01.657Z,26.84
2023-01-13T11:32:01.568Z,27.05
2023-01-13T11:33:01.593Z,27.16
2023-01-13T11:34:01.531Z,27.41
2023-01-13T11:35:01.494Z,28.16
2023-01-13T11:36:01.478Z,28.16
2023-01-13T11:37:01.731Z,28.01
2023-01-13T11:38:01.384Z,28.02
2023-01-13T11:39:01.357Z,28.47
2023-01-13T11:40:01.683Z,28.96
2023-01-13T11:41:01.311Z,28.62
2023-01-13T11:42:01.625Z,28.73
2023-01-13T11:43:01.228Z,28.75
2023-01-13T11:44:01.178Z,28.84
2023-01-13T11:45:01.154Z,28.81
2023-01-13T11:46:01.115Z,28.93
2023-01-13T11:47:01.242Z,31.00
2023-01-13T11:48:01.048Z,31.49
2023-01-13T11:49:01.051Z,31.15
2023-01-13T11:50:00.982Z,31.70
2023-01-13T11:51:00.933Z,31.61
2023-01-13T11:52:00.904Z,31.79
2023-01-13T11:53:01.129Z,31.64
2023-01-13T11:54:01.133Z,32.02
2023-01-13T11:55:00.782Z,31.92
2023-01-13T11:56:00.749Z,32.52
2023-01-13T11:57:00.708Z,31.83
2023-01-13T11:58:00.684Z,31.23
2023-01-13T11:59:00.664Z,31.10
2023-01-13T12:00:00.616Z,31.48
2023-01-13T12:01:00.605Z,31.27
2023-01-13T12:02:00.665Z,31.26
2023-01-13T12:03:00.541Z,31.35
2023-01-13T12:04:00.464Z,30.74
2023-01-13T12:05:00.754Z,30.66
2023-01-13T12:06:00.388Z,29.92
2023-01-13T12:07:00.357Z,30.47
2023-01-13T12:08:00.314Z,30.72
2023-01-13T12:09:00.285Z,30.20
2023-01-13T12:10:00.630Z,30.21
2023-01-13T12:11:00.215Z,29.82
2023-01-13T12:12:00.163Z,30.22
2023-01-13T12:13:00.353Z,29.74
2023-01-13T12:14:00.112Z,29.90
2023-01-13T12:15:00.164Z,29.49
2023-01-13T12:16:00.014Z,29.72
2023-01-13T12:17:01.245Z,29.17
2023-01-13T12:17:59.937Z,28.80
2023-01-13T12:18:59.899Z,29.63
2023-01-13T12:20:00.164Z,29.33
2023-01-13T12:20:59.851Z,29.07
2023-01-13T12:21:59.802Z,29.51
2023-01-13T12:22:59.737Z,29.16
2023-01-13T12:23:59.701Z,29.33
2023-01-13T12:25:00.145Z,28.91
2023-01-13T12:25:59.632Z,28.72
2023-01-13T12:26:59.590Z,28.46
2023-01-13T12:27:59.552Z,28.47
2023-01-13T12:28:59.637Z,28.67
2023-01-13T12:29:59.469Z,28.63
2023-01-13T12:30:59.440Z,28.47
2023-01-13T12:32:00.481Z,28.42
2023-01-13T12:32:59.347Z,28.50
2023-01-13T12:33:59.317Z,28.39
2023-01-13T12:34:59.634Z,28.35
2023-01-13T12:35:59.224Z,28.48
2023-01-13T12:36:59.203Z,28.09
2023-01-13T12:37:59.142Z,28.26
2023-01-13T12:38:59.108Z,28.11
2023-01-13T12:39:59.068Z,28.09
2023-01-13T12:40:59.025Z,27.94
2023-01-13T12:41:58.976Z,28.13
2023-01-13T12:42:58.942Z,28.06
2023-01-13T12:43:58.905Z,28.09
2023-01-13T12:44:58.872Z,28.10
2023-01-13T12:45:58.924Z,28.12
2023-01-13T12:46:58.795Z,27.85
2023-01-13T12:47:58.760Z,28.14
2023-01-13T12:48:58.719Z,27.83
2023-01-13T12:49:59.147Z,27.84
2023-01-13T12:50:58.646Z,27.98
2023-01-13T12:51:58.613Z,28.00
2023-01-13T12:52:58.611Z,27.93
2023-01-13T12:53:58.535Z,27.82
2023-01-13T12:54:58.502Z,27.90
2023-01-13T12:55:58.460Z,27.85
2023-01-13T12:56:58.459Z,27.89
2023-01-13T12:57:58.412Z,27.91
2023-01-13T12:58:58.356Z,27.94
2023-01-13T12:59:58.323Z,27.85
2023-01-13T13:00:58.406Z,27.72
2023-01-13T13:01:58.460Z,27.74
2023-01-13T13:02:58.270Z,27.55
2023-01-13T13:03:58.190Z,27.48
2023-01-13T13:04:58.650Z,27.57
2023-01-13T13:05:58.182Z,27.48
2023-01-13T13:06:58.092Z,27.65
2023-01-13T13:07:58.158Z,27.68
2023-01-13T13:08:58.037Z,27.55
2023-01-13T13:09:57.993Z,27.63
2023-01-13T13:10:58.151Z,27.66
2023-01-13T13:11:57.932Z,27.58
2023-01-13T13:12:58.154Z,27.59
2023-01-13T13:13:57.857Z,27.58
2023-01-13T13:14:57.946Z,27.59
2023-01-13T13:15:57.795Z,27.60
2023-01-13T13:16:57.778Z,27.49
2023-01-13T13:17:57.725Z,27.51
2023-01-13T13:18:58.157Z,27.57
2023-01-13T13:19:57.675Z,27.59
2023-01-13T13:20:57.641Z,27.57
2023-01-13T13:21:57.618Z,27.51
2023-01-13T13:22:57.589Z,27.49
2023-01-13T13:23:57.576Z,27.46
2023-01-13T13:24:57.628Z,27.51
2023-01-13T13:25:57.500Z,27.49
2023-01-13T13:26:57.462Z,27.54
2023-01-13T13:27:57.425Z,27.49
2023-01-13T13:28:57.402Z,27.50
2023-01-13T13:29:57.674Z,27.55
2023-01-13T13:30:57.378Z,27.58
2023-01-13T13:31:57.295Z,27.61
2023-01-13T13:32:57.251Z,27.55
2023-01-13T13:33:57.214Z,27.61
2023-01-13T13:34:57.661Z,27.59
2023-01-13T13:35:57.153Z,27.63
2023-01-13T13:36:57.108Z,27.58
2023-01-13T13:37:57.083Z,27.62
2023-01-13T13:38:57.040Z,27.63
2023-01-13T13:39:57.060Z,27.64
2023-01-13T13:40:56.996Z,27.62
2023-01-13T13:41:56.937Z,27.64
2023-01-13T13:42:56.908Z,27.66
2023-01-13T13:43:56.873Z,27.65
2023-01-13T13:44:57.162Z,27.64
2023-01-13T13:45:56.900Z,27.64
2023-01-13T13:46:56.758Z,27.65